Alamogordo/Holloman AFB, New Mexico
Current Conditions -  °F | °C
As of 7:58 AM on Monday 22 Dec 2014 (Local Time) from KHMN Reporting Station
Clear Clear  
Wind Chill: 27°   Ceiling: Unl
Heat Index: 34°   Visibility: 10mi
Dew Point: 29°   Wind: 8mph
Humidity: 81%   Direction: 340°NNW
Pressure: 29.89"   Gusts: NA
Location:  32.85°N, 106.1°W
Report Text: KHMN 221458Z AUTO 34007KT 10SM CLR 01/M02 A2989 RMK AO2 SLP109 T00111018 50001 $
Loading
Personal Weather Stations






























Interactive Weather Map New forecast layout! Learn more

10-Day Weather Forecast

Advertisements
Track Severe Weather on mobile